Weather History for Chignik, AK

Change the Weather History Date:

Sunday, November 13, 2011

  Actual Average Record
Temperature  
Mean Temperature 34 °F -  
Max Temperature 37 °F 39 °F 57 °F (2013)
Min Temperature 32 °F 33 °F 24 °F (2003)
Degree Days  
Heating Degree Days 30    
Moisture  
Dew Point 22 °F    
Average Humidity 57    
Maximum Humidity 80    
Minimum Humidity 48    
Precipitation  
Precipitation 0.00 in - - ()
Sea Level Pressure  
Sea Level Pressure 29.96 in    
Wind  
Wind Speed 15 mph (WSW)    
Max Wind Speed 23 mph    
Max Gust Speed 34 mph    
Visibility 10 miles    
Events      
Averages and records for this station are not official NWS values.
T = Trace of Precipitation, MM = Missing Value Source: NWS Daily Summary

Daily Weather History Graph

Daily Weather History Graph

Search for Another Location

Airport:

Trip Planner

Search our weather history database for the weather conditions in past years. The results will help you decide how hot, cold, wet, or windy it might be!

Date:

Astronomy

Nov. 13, 2011 Rise Set
Actual Time 9:07 AM AKST 5:27 PM AKST
Civil Twilight 8:24 AM AKST 6:09 PM AKST
Nautical Twilight 7:39 AM AKST 6:55 PM AKST
Astronomical Twilight 6:55 AM AKST 7:39 PM AKST
Moon 7:25 PM AKST (11/13) 12:11 PM AKST (11/13)
Length of Visible Light 9h 44m
Length of Day
8h 20m
Waning Gibbous, 92% of the Moon is Illuminated
Nov 13
Waning Gibbous
Nov 18
Last Quarter
Nov 24
New
Dec 2
First Quarter
Dec 10
Full

Hourly Weather History & Observations

Time (AKST) Temp. Windchill Dew Point Humidity Pressure Visibility Wind Dir Wind Speed Gust Speed Precip Events Conditions
12:16 AM 35.6 °F 25.5 °F 21.2 °F 56% 29.88 in 10.0 mi West 17.3 mph 23.0 mph N/A   Overcast
12:36 AM 33.8 °F 23.9 °F 23.0 °F 65% 29.88 in 9.0 mi SW 15.0 mph 26.5 mph N/A   Overcast
12:56 AM 33.8 °F 23.5 °F 21.2 °F 60% 29.87 in 10.0 mi SW 16.1 mph 26.5 mph N/A   Mostly Cloudy
1:16 AM 35.6 °F 25.9 °F 21.2 °F 56% 29.88 in 10.0 mi WSW 16.1 mph 29.9 mph N/A   Mostly Cloudy
1:36 AM 35.6 °F 26.2 °F 19.4 °F 52% 29.89 in 10.0 mi WSW 15.0 mph 19.6 mph N/A   Mostly Cloudy
1:56 AM 35.6 °F 26.2 °F 21.2 °F 56% 29.89 in 10.0 mi WSW 15.0 mph 26.5 mph N/A   Overcast
2:16 AM 35.6 °F 25.2 °F 21.2 °F 56% 29.89 in 10.0 mi SW 18.4 mph 29.9 mph N/A   Mostly Cloudy
2:36 AM 33.8 °F 23.5 °F 21.2 °F 60% 29.90 in 8.0 mi WSW 16.1 mph 25.3 mph N/A   Mostly Cloudy
3:36 AM 35.6 °F 26.6 °F 21.2 °F 56% 29.91 in 10.0 mi West 13.8 mph 23.0 mph N/A   Overcast
3:56 AM 35.6 °F 24.5 °F 21.2 °F 56% 29.91 in 10.0 mi West 20.7 mph 29.9 mph N/A   Mostly Cloudy
4:16 AM 35.6 °F 25.9 °F 21.2 °F 56% 29.92 in 10.0 mi West 16.1 mph 27.6 mph N/A   Mostly Cloudy
4:36 AM 35.6 °F 26.2 °F 21.2 °F 56% 29.92 in 10.0 mi West 15.0 mph 29.9 mph N/A   Overcast
4:56 AM 35.6 °F 26.6 °F 21.2 °F 56% 29.92 in 10.0 mi West 13.8 mph 21.9 mph N/A   Overcast
5:16 AM 35.6 °F 24.8 °F 21.2 °F 56% 29.92 in 10.0 mi WSW 19.6 mph 31.1 mph N/A   Mostly Cloudy
5:36 AM 35.6 °F 24.8 °F 19.4 °F 52% 29.92 in 10.0 mi West 19.6 mph 26.5 mph N/A   Mostly Cloudy
5:56 AM 35.6 °F 25.5 °F 21.2 °F 56% 29.92 in 10.0 mi West 17.3 mph 31.1 mph N/A   Scattered Clouds
6:16 AM 35.6 °F 24.0 °F 19.4 °F 52% 29.92 in 10.0 mi West 23.0 mph 29.9 mph N/A   Clear
6:36 AM 35.6 °F 25.5 °F 19.4 °F 52% 29.92 in 10.0 mi WSW 17.3 mph 29.9 mph N/A   Scattered Clouds
6:56 AM 35.6 °F 24.2 °F 19.4 °F 52% 29.94 in 10.0 mi West 21.9 mph 27.6 mph N/A   Mostly Cloudy
7:16 AM 35.6 °F 26.2 °F 19.4 °F 52% 29.94 in 10.0 mi West 15.0 mph 32.2 mph N/A   Mostly Cloudy
7:36 AM 35.6 °F 25.9 °F 19.4 °F 52% 29.94 in 10.0 mi West 16.1 mph 23.0 mph N/A   Scattered Clouds
7:56 AM 35.6 °F 25.5 °F 21.2 °F 56% 29.95 in 10.0 mi West 17.3 mph 26.5 mph N/A   Mostly Cloudy
8:16 AM 35.6 °F 27.1 °F 19.4 °F 52% 29.95 in 10.0 mi West 12.7 mph 23.0 mph N/A   Scattered Clouds
8:36 AM 35.6 °F 25.9 °F 19.4 °F 52% 29.95 in 10.0 mi WNW 16.1 mph 29.9 mph N/A   Mostly Cloudy
8:56 AM 35.6 °F 26.2 °F 17.6 °F 48% 29.96 in 10.0 mi West 15.0 mph 24.2 mph N/A   Mostly Cloudy
9:16 AM 35.6 °F 26.2 °F 19.4 °F 52% 29.97 in 10.0 mi West 15.0 mph 23.0 mph N/A   Mostly Cloudy
9:36 AM 35.6 °F 26.2 °F 19.4 °F 52% 29.97 in 10.0 mi West 15.0 mph 18.4 mph N/A   Mostly Cloudy
9:56 AM 35.6 °F 24.8 °F 19.4 °F 52% 29.98 in 10.0 mi West 19.6 mph 27.6 mph N/A   Mostly Cloudy
10:16 AM 35.6 °F 26.6 °F 21.2 °F 56% 29.98 in 10.0 mi WSW 13.8 mph 23.0 mph N/A   Mostly Cloudy
10:36 AM 35.6 °F 25.2 °F 21.2 °F 56% 29.98 in 10.0 mi WSW 18.4 mph 28.8 mph N/A   Mostly Cloudy
10:56 AM 35.6 °F 24.8 °F 23.0 °F 60% 29.99 in 5.0 mi WSW 19.6 mph 33.4 mph N/A   Mostly Cloudy
11:16 AM 32.0 °F 22.1 °F 26.6 °F 80% 30.00 in 1.0 mi WSW 13.8 mph - N/A   Overcast
11:36 AM 33.8 °F 23.2 °F 26.6 °F 75% 30.01 in 2.5 mi WSW 17.3 mph - N/A   Mostly Cloudy
11:56 AM 33.8 °F 25.3 °F 24.8 °F 70% 30.00 in 10.0 mi SW 11.5 mph - N/A   Mostly Cloudy
12:16 PM 35.6 °F 27.1 °F 24.8 °F 65% 30.00 in 10.0 mi WSW 12.7 mph 18.4 mph N/A   Overcast
12:36 PM 37.4 °F 27.8 °F 21.2 °F 52% 30.00 in 10.0 mi WSW 17.3 mph 26.5 mph N/A   Overcast
12:56 PM 37.4 °F 28.2 °F 23.0 °F 56% 30.00 in 10.0 mi WSW 16.1 mph 26.5 mph N/A   Mostly Cloudy
1:16 PM 37.4 °F 28.2 °F 23.0 °F 56% 29.99 in 10.0 mi SW 16.1 mph 23.0 mph N/A   Partly Cloudy
1:36 PM 37.4 °F 27.8 °F 23.0 °F 56% 29.99 in 10.0 mi WSW 17.3 mph 23.0 mph N/A   Scattered Clouds
1:56 PM 37.4 °F 28.2 °F 23.0 °F 56% 29.99 in 10.0 mi WSW 16.1 mph 23.0 mph N/A   Mostly Cloudy
2:16 PM 37.4 °F 27.8 °F 24.8 °F 60% 29.98 in 10.0 mi SW 17.3 mph - N/A   Scattered Clouds
2:36 PM 37.4 °F 29.3 °F 23.0 °F 56% 29.97 in 10.0 mi WSW 12.7 mph 23.0 mph N/A   Scattered Clouds
2:56 PM 37.4 °F 28.9 °F 21.2 °F 52% 29.98 in 10.0 mi West 13.8 mph 21.9 mph N/A   Scattered Clouds
3:16 PM 37.4 °F 27.8 °F 21.2 °F 52% 29.98 in 10.0 mi West 17.3 mph 25.3 mph N/A   Scattered Clouds
3:36 PM 37.4 °F 26.6 °F 23.0 °F 56% 29.99 in 10.0 mi West 21.9 mph 34.5 mph N/A   Mostly Cloudy
3:56 PM 37.4 °F 28.2 °F 23.0 °F 56% 29.99 in 10.0 mi West 16.1 mph 26.5 mph N/A   Scattered Clouds
4:16 PM 37.4 °F 28.9 °F 24.8 °F 60% 29.99 in 10.0 mi West 13.8 mph 25.3 mph N/A   Partly Cloudy
4:36 PM 37.4 °F 30.3 °F 24.8 °F 60% 29.99 in 10.0 mi WNW 10.4 mph 21.9 mph N/A   Mostly Cloudy
4:56 PM 37.4 °F 30.8 °F 23.0 °F 56% 29.99 in 7.0 mi West 9.2 mph - N/A   Overcast
5:16 PM 37.4 °F 29.3 °F 23.0 °F 56% 29.99 in 10.0 mi WSW 12.7 mph - N/A   Overcast
5:36 PM 37.4 °F 30.3 °F 23.0 °F 56% 30.00 in 10.0 mi SW 10.4 mph - N/A   Overcast
5:56 PM 37.4 °F 30.3 °F 24.8 °F 60% 30.00 in 10.0 mi WSW 10.4 mph - N/A   Overcast
6:16 PM 37.4 °F 30.8 °F 23.0 °F 56% 30.00 in 10.0 mi West 9.2 mph - N/A   Overcast
6:36 PM 35.6 °F 28.6 °F 24.8 °F 65% 30.01 in 10.0 mi West 9.2 mph - N/A   Mostly Cloudy
6:56 PM 37.4 °F 32.1 °F 21.2 °F 52% 30.00 in 10.0 mi West 6.9 mph - N/A   Mostly Cloudy
7:16 PM 37.4 °F 29.8 °F 23.0 °F 56% 30.00 in 10.0 mi WSW 11.5 mph 21.9 mph N/A   Mostly Cloudy
7:36 PM 37.4 °F 30.8 °F 21.2 °F 52% 30.00 in 10.0 mi WSW 9.2 mph - N/A   Scattered Clouds
7:56 PM 35.6 °F 28.6 °F 21.2 °F 56% 30.00 in 10.0 mi West 9.2 mph - N/A   Mostly Cloudy
8:16 PM 35.6 °F - 19.4 °F 52% 30.00 in 10.0 mi Calm Calm - N/A   Partly Cloudy
8:36 PM 35.6 °F 32.8 °F 21.2 °F 56% 30.00 in 10.0 mi SSW 3.5 mph - N/A   Mostly Cloudy
8:56 PM 35.6 °F 31.7 °F 23.0 °F 60% 30.00 in 10.0 mi WSW 4.6 mph - N/A   Mostly Cloudy
9:16 PM 35.6 °F 32.8 °F 21.2 °F 56% 29.99 in 10.0 mi SSW 3.5 mph - N/A   Partly Cloudy
9:36 PM 35.6 °F 28.0 °F 21.2 °F 56% 29.98 in 10.0 mi WSW 10.4 mph - N/A   Clear
9:56 PM 37.4 °F 31.4 °F 21.2 °F 52% 29.99 in 10.0 mi WSW 8.1 mph - N/A   Clear
10:16 PM 35.6 °F 32.8 °F 21.2 °F 56% 29.98 in 10.0 mi SE 3.5 mph - N/A   Clear
10:36 PM 35.6 °F - 19.4 °F 52% 29.99 in 10.0 mi Calm Calm - N/A   Scattered Clouds
10:56 PM 35.6 °F - 19.4 °F 52% 29.99 in 10.0 mi Calm Calm - N/A   Overcast
11:16 PM 35.6 °F - 19.4 °F 52% 29.98 in 10.0 mi Calm Calm - N/A   Overcast
11:36 PM 35.6 °F - 21.2 °F 56% 29.98 in 10.0 mi Calm Calm - N/A   Overcast
11:56 PM 37.4 °F 28.5 °F 24.8 °F 60% 29.97 in 10.0 mi SW 15.0 mph - N/A   Overcast